createdAt,value
2022-12-04T00:01:22.481Z,80.86
2022-12-04T00:09:44.396Z,80.89
2022-12-04T00:18:05.867Z,81.05
2022-12-04T00:26:30.337Z,81.13
2022-12-04T00:34:53.100Z,81.12
2022-12-04T00:43:14.555Z,80.94
2022-12-04T00:51:36.317Z,80.88
2022-12-04T00:59:58.051Z,80.97
2022-12-04T01:08:19.667Z,81.05
2022-12-04T01:16:41.457Z,81.19
2022-12-04T01:25:04.603Z,81.02
2022-12-04T01:33:27.194Z,81.00
2022-12-04T01:41:48.835Z,81.02
2022-12-04T01:50:10.410Z,81.16
2022-12-04T01:58:40.794Z,81.00
2022-12-04T02:07:03.176Z,81.10
2022-12-04T02:15:41.709Z,80.99
2022-12-04T02:24:22.240Z,81.10
2022-12-04T02:32:52.903Z,81.26
2022-12-04T02:41:44.077Z,81.30
2022-12-04T02:50:12.743Z,81.34
2022-12-04T02:58:59.113Z,81.04
2022-12-04T03:07:27.088Z,81.12
2022-12-04T03:16:08.360Z,81.08
2022-12-04T03:24:48.255Z,81.28
2022-12-04T03:33:19.216Z,81.21
2022-12-04T03:42:04.633Z,81.28
2022-12-04T03:50:36.398Z,81.34
2022-12-04T03:59:18.864Z,81.29
2022-12-04T04:08:22.758Z,81.16
2022-12-04T04:17:15.156Z,81.16
2022-12-04T04:25:40.452Z,81.07
2022-12-04T04:34:27.309Z,81.23
2022-12-04T04:43:20.876Z,81.29
2022-12-04T04:51:44.735Z,81.12
2022-12-04T05:00:23.044Z,81.32
2022-12-04T05:08:44.612Z,81.34
2022-12-04T05:17:12.178Z,81.31
2022-12-04T05:25:34.224Z,81.14
2022-12-04T05:33:56.237Z,81.34
2022-12-04T05:42:17.784Z,81.24
2022-12-04T05:50:39.216Z,81.32
2022-12-04T05:59:01.960Z,81.27
2022-12-04T06:07:23.486Z,81.45
2022-12-04T06:15:45.148Z,81.27
2022-12-04T06:24:10.376Z,81.39
2022-12-04T06:32:31.873Z,81.35
2022-12-04T06:40:53.476Z,81.43
2022-12-04T06:49:14.928Z,81.55
2022-12-04T06:57:36.692Z,81.28
2022-12-04T07:05:58.509Z,81.48
2022-12-04T07:14:19.984Z,81.45
2022-12-04T07:22:41.445Z,81.49
2022-12-04T07:31:08.367Z,81.36
2022-12-04T07:39:29.885Z,81.49
2022-12-04T07:47:51.340Z,81.49
2022-12-04T07:56:13.987Z,81.59
2022-12-04T08:04:36.433Z,81.52
2022-12-04T08:12:58.068Z,81.61
2022-12-04T08:21:23.023Z,81.69
2022-12-04T08:29:44.658Z,81.66
2022-12-04T08:38:06.108Z,81.74
2022-12-04T08:46:28.791Z,81.70
2022-12-04T08:54:50.680Z,81.75
2022-12-04T09:03:18.885Z,81.58
2022-12-04T09:11:40.459Z,81.72
2022-12-04T09:20:04.755Z,81.82
2022-12-04T09:28:26.878Z,81.74
2022-12-04T09:36:50.728Z,81.95
2022-12-04T09:45:19.624Z,81.81
2022-12-04T09:53:46.971Z,81.94
2022-12-04T10:02:11.557Z,82.01
2022-12-04T10:10:46.076Z,81.78
2022-12-04T10:19:13.544Z,81.66
2022-12-04T10:27:50.885Z,81.75
2022-12-04T10:36:27.509Z,81.61
2022-12-04T10:44:49.119Z,81.86
2022-12-04T10:53:14.579Z,81.73
2022-12-04T11:01:36.200Z,81.74
2022-12-04T11:10:04.427Z,81.90
2022-12-04T11:18:27.391Z,81.69
2022-12-04T11:26:50.029Z,81.95
2022-12-04T11:35:25.417Z,81.91
2022-12-04T11:43:49.512Z,81.65
2022-12-04T11:52:30.285Z,82.05
2022-12-04T12:01:15.886Z,81.93
2022-12-04T12:10:21.259Z,81.87
2022-12-04T12:18:45.591Z,82.05
2022-12-04T12:27:29.969Z,81.73
2022-12-04T12:36:08.746Z,81.60
2022-12-04T12:44:45.614Z,81.80
2022-12-04T12:53:18.015Z,81.91
2022-12-04T13:02:00.673Z,81.92
2022-12-04T13:10:29.489Z,81.78
2022-12-04T13:19:02.804Z,81.82
2022-12-04T13:27:46.367Z,81.66
2022-12-04T13:36:32.789Z,81.78
2022-12-04T13:45:02.351Z,81.78
2022-12-04T13:53:32.603Z,81.81
2022-12-04T14:02:06.455Z,81.95
2022-12-04T14:10:33.800Z,81.55
2022-12-04T14:18:59.088Z,81.65
2022-12-04T14:27:42.547Z,81.72
2022-12-04T14:36:36.920Z,81.64
2022-12-04T14:45:04.600Z,81.49
2022-12-04T14:53:32.084Z,81.49
2022-12-04T15:01:55.238Z,81.47
2022-12-04T15:10:45.140Z,81.75
2022-12-04T15:19:17.395Z,81.59
2022-12-04T15:27:39.565Z,81.67
2022-12-04T15:36:08.710Z,81.54
2022-12-04T15:44:33.835Z,81.68
2022-12-04T15:53:20.254Z,81.67
2022-12-04T16:01:41.912Z,81.40
2022-12-04T16:10:21.489Z,81.46
2022-12-04T16:18:45.232Z,81.49
2022-12-04T16:27:12.651Z,81.55
2022-12-04T16:35:34.313Z,81.62
2022-12-04T16:43:58.919Z,81.69
2022-12-04T16:52:21.390Z,81.54
2022-12-04T17:00:49.324Z,81.68
2022-12-04T17:09:12.260Z,81.36
2022-12-04T17:17:37.786Z,81.45
2022-12-04T17:26:06.624Z,81.29
2022-12-04T17:34:28.801Z,81.51
2022-12-04T17:42:50.584Z,81.32
2022-12-04T17:51:17.958Z,81.33
2022-12-04T17:59:40.583Z,81.21
2022-12-04T18:08:02.096Z,81.42
2022-12-04T18:16:25.379Z,81.39
2022-12-04T18:24:47.424Z,81.27
2022-12-04T18:33:09.047Z,81.38
2022-12-04T18:41:31.455Z,81.27
2022-12-04T18:49:52.927Z,81.38
2022-12-04T18:58:14.433Z,81.43
2022-12-04T19:06:42.036Z,81.21
2022-12-04T19:15:04.737Z,81.51
2022-12-04T19:23:26.271Z,81.52
2022-12-04T19:31:47.880Z,81.32
2022-12-04T19:40:11.074Z,81.09
2022-12-04T19:48:33.730Z,81.16
2022-12-04T19:56:56.336Z,81.23
2022-12-04T20:05:17.817Z,81.29
2022-12-04T20:13:39.825Z,81.30
2022-12-04T20:22:01.315Z,81.24
2022-12-04T20:30:22.852Z,81.22
2022-12-04T20:38:45.720Z,81.06
2022-12-04T20:47:07.904Z,81.12
2022-12-04T20:55:29.517Z,81.38
2022-12-04T21:03:52.427Z,81.41
2022-12-04T21:12:35.471Z,81.19
2022-12-04T21:21:00.944Z,81.00
2022-12-04T21:29:23.341Z,81.06
2022-12-04T21:37:44.867Z,80.99
2022-12-04T21:46:09.626Z,80.99
2022-12-04T21:54:31.536Z,80.92
2022-12-04T22:02:53.129Z,81.09
2022-12-04T22:11:16.580Z,80.95
2022-12-04T22:19:38.663Z,81.28
2022-12-04T22:28:00.516Z,81.05
2022-12-04T22:36:25.141Z,80.98
2022-12-04T22:44:46.591Z,81.13
2022-12-04T22:53:08.232Z,81.10
2022-12-04T23:01:32.340Z,80.91
2022-12-04T23:09:53.787Z,80.85
2022-12-04T23:18:15.440Z,81.14
2022-12-04T23:26:40.485Z,81.03
2022-12-04T23:35:01.956Z,80.92
2022-12-04T23:43:23.506Z,80.85
2022-12-04T23:51:44.957Z,80.91
